Time;durP1;ratioP1;P1;durP2;ratioP2;P2;SDS_P1;SDS_P2;PMS_P1;PMS_P2;Temp;Humidity;BMP_temperature;BMP_pressure;BME280_temperature;BME280_humidity;BME280_pressure;Samples;Min_cycle;Max_cycle;Signal;HPM_P1;HPM_P2
2023/06/01 00:02:27;;;;;;;10.30;3.58;;;16.20;81.80;;;;;;5047195;28;20078;-73
2023/06/01 00:04:59;;;;;;;6.22;3.30;;;16.10;81.90;;;;;;5043727;28;20450;-74
2023/06/01 00:07:32;;;;;;;8.68;4.00;;;16.00;82.10;;;;;;5045174;28;20491;-74
2023/06/01 00:09:59;;;;;;;10.88;4.13;;;16.00;82.30;;;;;;5046452;28;20100;-74
2023/06/01 00:12:24;;;;;;;8.18;4.32;;;16.00;82.50;;;;;;5045863;28;20032;-74
2023/06/01 00:14:53;;;;;;;7.72;3.95;;;15.90;82.50;;;;;;5044557;28;20025;-75
2023/06/01 00:17:19;;;;;;;9.05;4.03;;;15.90;82.70;;;;;;5046246;28;20033;-75
2023/06/01 00:19:47;;;;;;;5.55;3.63;;;15.90;82.80;;;;;;5043755;28;20029;-74
2023/06/01 00:22:16;;;;;;;9.95;4.45;;;15.80;82.80;;;;;;5048321;28;20455;-74
2023/06/01 00:24:48;;;;;;;7.65;4.05;;;15.80;82.80;;;;;;5042794;28;20041;-74
2023/06/01 00:27:16;;;;;;;8.27;3.88;;;15.80;83.20;;;;;;5047059;28;20106;-76
2023/06/01 00:29:42;;;;;;;5.90;3.60;;;15.70;83.20;;;;;;5047567;28;20503;-73
2023/06/01 00:32:07;;;;;;;8.98;4.18;;;15.70;83.30;;;;;;5049362;28;20033;-73
2023/06/01 00:34:33;;;;;;;11.05;3.92;;;15.70;83.40;;;;;;5043568;28;20025;-75
2023/06/01 00:36:59;;;;;;;7.22;3.70;;;15.70;83.50;;;;;;5045866;28;20041;-74
2023/06/01 00:39:24;;;;;;;8.68;3.97;;;15.60;83.60;;;;;;5043395;28;20391;-73
2023/06/01 00:41:50;;;;;;;8.85;3.92;;;15.60;83.80;;;;;;5047639;28;20044;-74
2023/06/01 00:44:15;;;;;;;10.30;4.30;;;15.60;83.90;;;;;;5047691;28;20118;-74
2023/06/01 00:46:41;;;;;;;7.43;4.18;;;15.50;84.10;;;;;;5045380;28;20551;-74
2023/06/01 00:49:10;;;;;;;7.55;4.25;;;15.50;84.40;;;;;;5047109;28;20028;-74
2023/06/01 00:51:36;;;;;;;9.32;4.47;;;15.50;84.90;;;;;;5043812;28;20017;-74
2023/06/01 00:54:04;;;;;;;8.60;4.82;;;15.40;85.70;;;;;;5048940;28;20099;-73
2023/06/01 00:56:32;;;;;;;6.78;4.65;;;15.40;86.10;;;;;;5044598;28;20037;-74
2023/06/01 00:58:59;;;;;;;11.25;5.70;;;15.40;86.40;;;;;;5043595;28;20029;-74
2023/06/01 01:01:27;;;;;;;11.25;5.10;;;15.40;86.90;;;;;;5061157;28;20750;-74
2023/06/01 01:04:00;;;;;;;11.15;5.07;;;15.30;87.20;;;;;;5047686;28;20016;-74
2023/06/01 01:07:00;;;;;;;7.00;4.70;;;15.30;87.60;;;;;;5045534;28;20047;-74
2023/06/01 01:09:49;;;;;;;8.90;5.20;;;15.20;88.00;;;;;;5044557;28;20079;-74
2023/06/01 01:12:26;;;;;;;7.25;5.32;;;15.20;88.40;;;;;;5042732;28;20059;-74
2023/06/01 01:15:18;;;;;;;9.55;5.20;;;15.20;88.50;;;;;;5038176;28;20096;-74
2023/06/01 01:17:53;;;;;;;12.50;5.60;;;15.10;88.80;;;;;;5042731;28;20071;-74
2023/06/01 01:20:24;;;;;;;10.40;5.60;;;15.00;88.80;;;;;;5044550;28;20025;-74
2023/06/01 01:23:24;;;;;;;9.48;5.40;;;15.00;88.90;;;;;;5043422;28;20433;-73
2023/06/01 01:26:12;;;;;;;9.68;5.43;;;15.00;89.10;;;;;;5045465;28;20017;-73
2023/06/01 01:28:50;;;;;;;10.55;5.00;;;15.00;89.90;;;;;;5039060;28;20029;-74
2023/06/01 01:31:23;;;;;;;9.70;5.38;;;14.90;90.00;;;;;;5044025;28;20094;-73
2023/06/01 01:33:56;;;;;;;10.85;6.28;;;14.80;90.10;;;;;;5042040;28;20132;-73
2023/06/01 01:36:23;;;;;;;14.18;5.80;;;14.80;90.10;;;;;;5044187;28;20021;-74
2023/06/01 01:38:49;;;;;;;6.78;4.63;;;14.80;90.20;;;;;;5043081;28;20054;-73
2023/06/01 01:41:14;;;;;;;10.00;4.90;;;14.70;90.30;;;;;;5046356;28;20135;-74
2023/06/01 01:43:46;;;;;;;9.05;4.90;;;14.70;90.50;;;;;;5040639;28;20028;-73
2023/06/01 01:46:18;;;;;;;9.88;4.88;;;14.60;90.60;;;;;;5042749;28;20495;-74
2023/06/01 01:49:20;;;;;;;10.82;5.75;;;14.60;90.60;;;;;;5040454;28;20028;-73
2023/06/01 01:52:13;;;;;;;8.40;4.38;;;14.60;90.70;;;;;;5045642;28;20028;-73
2023/06/01 01:54:50;;;;;;;8.97;4.80;;;14.50;90.80;;;;;;5047161;28;20028;-73
2023/06/01 01:57:18;;;;;;;11.07;4.35;;;14.50;90.80;;;;;;5042278;28;20971;-73
2023/06/01 01:59:47;;;;;;;10.80;5.10;;;14.50;90.80;;;;;;5045595;28;20109;-73
2023/06/01 02:02:17;;;;;;;11.43;4.82;;;14.50;90.90;;;;;;5044354;28;20416;-73
2023/06/01 02:04:46;;;;;;;9.02;5.13;;;14.40;91.20;;;;;;5044294;28;20051;-72
2023/06/01 02:07:20;;;;;;;8.95;4.68;;;14.40;91.00;;;;;;5042785;28;20036;-72
2023/06/01 02:09:46;;;;;;;8.40;5.45;;;14.30;91.00;;;;;;5046635;28;20113;-76
2023/06/01 02:12:17;;;;;;;7.88;4.78;;;14.30;91.10;;;;;;5042551;28;20137;-73
2023/06/01 02:14:43;;;;;;;9.50;5.20;;;14.20;91.30;;;;;;5039535;28;20039;-74
2023/06/01 02:17:09;;;;;;;10.35;5.28;;;14.20;91.40;;;;;;5045181;28;20036;-73
2023/06/01 02:19:37;;;;;;;10.52;5.57;;;14.20;91.40;;;;;;5034719;28;20112;-74
2023/06/01 02:22:03;;;;;;;8.98;5.10;;;14.20;91.40;;;;;;5045771;28;20021;-73
2023/06/01 02:24:34;;;;;;;9.98;4.60;;;14.20;91.40;;;;;;5041959;28;20048;-73
2023/06/01 02:27:03;;;;;;;6.32;4.25;;;14.10;91.40;;;;;;5043654;28;20029;-72
2023/06/01 02:29:29;;;;;;;7.65;4.13;;;14.10;91.40;;;;;;5045623;28;20025;-72
2023/06/01 02:32:00;;;;;;;8.05;4.75;;;14.10;91.30;;;;;;5042008;28;20025;-73
2023/06/01 02:34:32;;;;;;;10.35;5.82;;;14.20;91.30;;;;;;5044352;28;20021;-72
2023/06/01 02:36:58;;;;;;;7.28;4.95;;;14.20;91.30;;;;;;5045733;28;20499;-73
2023/06/01 02:39:27;;;;;;;11.05;4.72;;;14.10;91.30;;;;;;5042440;28;20040;-72
2023/06/01 02:41:59;;;;;;;11.98;4.78;;;14.10;91.30;;;;;;5043222;28;20017;-73
2023/06/01 02:44:24;;;;;;;8.25;5.07;;;14.00;91.30;;;;;;5047973;28;20021;-73
2023/06/01 02:46:50;;;;;;;9.75;4.47;;;14.00;91.30;;;;;;5048563;28;20048;-72
2023/06/01 02:49:19;;;;;;;9.93;4.90;;;14.00;91.40;;;;;;5048097;28;20467;-72
2023/06/01 02:51:51;;;;;;;8.60;4.68;;;14.00;91.30;;;;;;5063614;28;20025;-72
2023/06/01 02:54:16;;;;;;;9.57;4.63;;;14.00;91.30;;;;;;5047243;28;20095;-72
2023/06/01 02:56:42;;;;;;;6.60;3.65;;;14.00;91.30;;;;;;5046535;28;20471;-72
2023/06/01 02:59:08;;;;;;;9.07;4.80;;;13.90;91.30;;;;;;5040977;28;20124;-72
2023/06/01 03:01:39;;;;;;;10.55;4.68;;;13.90;91.30;;;;;;5044663;28;20016;-72
2023/06/01 03:04:04;;;;;;;7.70;4.03;;;13.90;91.30;;;;;;5046193;28;20036;-72
2023/06/01 03:06:32;;;;;;;7.47;4.50;;;13.90;91.30;;;;;;5050269;28;20039;-73
2023/06/01 03:09:00;;;;;;;8.45;4.00;;;13.80;91.30;;;;;;5043845;28;20021;-74
2023/06/01 03:11:26;;;;;;;9.43;5.05;;;13.80;91.30;;;;;;5051726;28;20021;-73
2023/06/01 03:13:52;;;;;;;8.38;4.60;;;13.80;91.30;;;;;;5046814;28;20029;-73
2023/06/01 03:16:17;;;;;;;8.43;4.03;;;13.80;91.30;;;;;;5047286;28;20046;-73
2023/06/01 03:18:43;;;;;;;8.38;4.38;;;13.80;91.30;;;;;;5034537;28;20033;-74
2023/06/01 03:21:16;;;;;;;7.22;4.63;;;13.70;91.30;;;;;;5041787;28;20037;-74
2023/06/01 03:23:47;;;;;;;10.77;4.60;;;13.80;91.40;;;;;;5050438;28;20021;-72
2023/06/01 03:26:13;;;;;;;6.82;4.20;;;13.80;91.70;;;;;;5045139;28;20400;-73
2023/06/01 03:28:39;;;;;;;8.73;4.15;;;13.80;91.40;;;;;;5047624;28;20514;-74
2023/06/01 03:31:06;;;;;;;9.70;4.57;;;13.80;91.40;;;;;;5047747;28;20025;-72
2023/06/01 03:33:34;;;;;;;9.73;4.80;;;13.80;91.30;;;;;;5049453;28;20021;-72
2023/06/01 03:36:07;;;;;;;10.23;4.60;;;13.70;91.30;;;;;;5051530;28;20361;-72
2023/06/01 03:38:32;;;;;;;9.75;4.15;;;13.70;91.30;;;;;;5050322;28;20056;-73
2023/06/01 03:40:58;;;;;;;10.82;4.80;;;13.70;91.40;;;;;;5044015;28;20064;-72
2023/06/01 03:43:24;;;;;;;6.63;3.92;;;13.60;91.70;;;;;;5048520;28;20029;-73
2023/06/01 03:45:49;;;;;;;6.82;3.95;;;13.60;91.40;;;;;;5050990;28;20087;-72
2023/06/01 03:48:15;;;;;;;11.18;4.20;;;13.60;91.40;;;;;;5045554;28;20033;-73
2023/06/01 03:50:41;;;;;;;10.48;4.95;;;13.60;91.50;;;;;;5047784;28;20025;-73
2023/06/01 03:53:07;;;;;;;8.15;4.50;;;13.50;91.50;;;;;;5040681;28;20056;-72
2023/06/01 03:55:32;;;;;;;8.48;4.18;;;13.60;91.50;;;;;;5047990;28;20064;-73
2023/06/01 03:58:02;;;;;;;8.25;4.97;;;13.60;91.50;;;;;;5049902;28;20025;-73
2023/06/01 04:00:28;;;;;;;6.72;5.07;;;13.60;91.60;;;;;;5046082;28;20443;-73
2023/06/01 04:02:58;;;;;;;8.05;5.22;;;13.60;91.80;;;;;;5049636;28;20119;-73
2023/06/01 04:05:30;;;;;;;12.27;5.63;;;13.60;92.20;;;;;;5064436;28;20017;-73
2023/06/01 04:07:59;;;;;;;12.15;6.00;;;13.60;92.30;;;;;;5045838;28;20056;-73
2023/06/01 04:10:27;;;;;;;17.15;6.50;;;13.60;92.70;;;;;;5048313;28;20024;-72
2023/06/01 04:13:02;;;;;;;11.23;6.75;;;13.60;92.60;;;;;;5046449;28;20021;-73
2023/06/01 04:15:27;;;;;;;10.13;5.80;;;13.60;92.70;;;;;;5046917;28;20032;-73
2023/06/01 04:17:53;;;;;;;17.95;6.40;;;13.60;92.80;;;;;;5042590;28;20021;-72
2023/06/01 04:20:19;;;;;;;14.50;6.40;;;13.60;92.80;;;;;;5040301;28;20037;-72
2023/06/01 04:22:47;;;;;;;9.32;6.00;;;13.60;92.90;;;;;;5044725;28;20044;-72
2023/06/01 04:25:18;;;;;;;12.07;6.65;;;13.60;93.00;;;;;;5047773;28;20086;-73
2023/06/01 04:27:45;;;;;;;11.07;6.13;;;13.70;93.10;;;;;;5050287;28;20021;-72
2023/06/01 04:30:12;;;;;;;13.35;6.50;;;13.70;92.90;;;;;;5045240;28;20040;-72
2023/06/01 04:32:38;;;;;;;12.82;6.47;;;13.80;92.80;;;;;;5048768;28;20442;-72
2023/06/01 04:35:08;;;;;;;10.77;6.68;;;13.90;92.70;;;;;;5046257;28;20029;-73
2023/06/01 04:37:35;;;;;;;11.60;6.78;;;13.90;92.70;;;;;;5047668;28;20029;-73
2023/06/01 04:40:09;;;;;;;13.07;6.00;;;14.00;92.60;;;;;;5032903;28;20159;-72
2023/06/01 04:42:38;;;;;;;11.98;6.40;;;14.00;92.70;;;;;;5040531;28;20025;-72
2023/06/01 04:45:06;;;;;;;15.07;6.30;;;14.10;92.60;;;;;;5040806;28;20037;-72
2023/06/01 04:47:50;;;;;;;9.40;6.10;;;14.20;92.50;;;;;;5049259;28;20510;-72
2023/06/01 04:50:16;;;;;;;;;;;14.20;92.40;;;;;;5045020;28;20426;-72
2023/06/01 04:52:42;;;;;;;9.98;5.47;;;14.30;92.40;;;;;;5041766;28;19917;-71
2023/06/01 04:55:09;;;;;;;13.52;5.45;;;14.30;92.20;;;;;;5048789;28;20040;-70
2023/06/01 04:57:36;;;;;;;10.80;4.85;;;14.40;92.30;;;;;;5051010;28;20214;-69
2023/06/01 05:00:06;;;;;;;9.27;5.55;;;14.60;92.30;;;;;;5046359;28;20031;-67
2023/06/01 05:02:46;;;;;;;12.40;5.65;;;14.70;92.00;;;;;;5051237;28;20044;-64
2023/06/01 05:05:12;;;;;;;10.88;4.95;;;14.80;92.00;;;;;;5039750;28;20036;-69
2023/06/01 05:07:42;;;;;;;10.30;5.50;;;14.90;91.60;;;;;;5032551;28;20108;-69
2023/06/01 05:10:10;;;;;;;11.20;6.13;;;15.00;91.40;;;;;;5038977;28;20103;-70
2023/06/01 05:12:42;;;;;;;10.45;5.38;;;15.10;91.30;;;;;;5046570;28;20103;-70
2023/06/01 05:15:09;;;;;;;9.85;5.47;;;15.20;91.00;;;;;;5049816;28;20029;-72
2023/06/01 05:17:35;;;;;;;9.98;5.05;;;15.30;90.90;;;;;;5053870;28;20032;-72
2023/06/01 05:20:05;;;;;;;12.52;5.85;;;15.40;90.50;;;;;;5050277;28;20028;-71
2023/06/01 05:22:31;;;;;;;11.55;5.30;;;15.50;90.20;;;;;;5044903;28;20029;-71
2023/06/01 05:24:57;;;;;;;12.25;5.60;;;15.60;90.10;;;;;;5044669;28;20055;-71
2023/06/01 05:27:35;;;;;;;8.60;5.07;;;15.70;90.00;;;;;;5040153;28;20417;-70
2023/06/01 05:30:05;;;;;;;7.10;4.97;;;15.90;89.70;;;;;;5041283;28;20076;-70
2023/06/01 05:32:42;;;;;;;12.50;5.03;;;16.00;89.30;;;;;;5043088;28;20021;-71
2023/06/01 05:35:08;;;;;;;10.07;5.18;;;16.10;88.70;;;;;;5046883;28;20395;-71
2023/06/01 05:37:34;;;;;;;8.93;4.82;;;16.20;88.60;;;;;;5044183;28;20032;-71
2023/06/01 05:39:59;;;;;;;15.68;5.43;;;16.30;88.30;;;;;;5051655;28;20078;-71
2023/06/01 05:42:25;;;;;;;9.82;5.15;;;16.40;88.10;;;;;;5042307;28;20018;-71
2023/06/01 05:44:57;;;;;;;7.97;5.20;;;16.60;87.50;;;;;;5049313;28;20086;-73
2023/06/01 05:47:32;;;;;;;8.50;5.07;;;16.70;87.70;;;;;;5048525;28;20496;-72
2023/06/01 05:49:57;;;;;;;9.15;4.15;;;16.70;86.00;;;;;;5044335;28;20568;-72
2023/06/01 05:52:23;;;;;;;7.72;4.53;;;16.80;85.80;;;;;;5044342;28;20029;-72
2023/06/01 05:54:50;;;;;;;9.93;4.93;;;16.90;85.80;;;;;;5037263;28;20034;-72
2023/06/01 05:57:19;;;;;;;9.48;4.90;;;17.00;85.70;;;;;;5047107;28;20033;-72
2023/06/01 05:59:47;;;;;;;10.63;4.80;;;17.10;85.40;;;;;;5041540;28;20013;-72
2023/06/01 06:02:13;;;;;;;8.90;5.93;;;17.10;85.00;;;;;;5042843;28;20464;-71
2023/06/01 06:04:48;;;;;;;8.40;5.20;;;17.20;85.00;;;;;;5041141;28;20380;-71
2023/06/01 06:07:13;;;;;;;8.77;4.80;;;17.30;84.90;;;;;;5045466;28;20029;-73
2023/06/01 06:09:48;;;;;;;11.63;5.32;;;17.30;84.70;;;;;;5043753;28;20179;-75
2023/06/01 06:12:14;;;;;;;13.23;6.13;;;17.40;84.30;;;;;;5050199;28;20566;-72
2023/06/01 06:14:39;;;;;;;8.35;5.35;;;17.50;84.30;;;;;;5050477;28;20190;-71
2023/06/01 06:17:05;;;;;;;11.55;5.47;;;17.50;84.20;;;;;;5052036;28;20503;-72
2023/06/01 06:19:37;;;;;;;10.20;5.53;;;17.50;83.70;;;;;;5051091;28;20029;-72
2023/06/01 06:22:03;;;;;;;7.25;4.68;;;17.50;83.80;;;;;;5052582;28;20025;-71
2023/06/01 06:24:28;;;;;;;10.02;4.57;;;17.60;84.10;;;;;;5050831;28;20376;-71
2023/06/01 06:26:54;;;;;;;10.73;5.15;;;17.70;83.90;;;;;;5052329;28;20345;-71
2023/06/01 06:29:19;;;;;;;8.88;4.55;;;17.70;83.40;;;;;;5045778;28;20060;-71
2023/06/01 06:31:45;;;;;;;13.98;4.10;;;17.60;83.00;;;;;;5032784;28;20041;-71
2023/06/01 06:34:23;;;;;;;10.93;4.95;;;17.60;83.20;;;;;;5032560;28;20029;-71
2023/06/01 06:36:52;;;;;;;12.35;5.00;;;17.60;82.50;;;;;;5032190;28;20029;-71
2023/06/01 06:39:18;;;;;;;10.00;4.93;;;17.70;82.70;;;;;;5032571;28;20025;-72
2023/06/01 06:41:53;;;;;;;10.80;5.55;;;17.80;82.80;;;;;;5032873;28;20700;-71
2023/06/01 06:44:18;;;;;;;12.85;5.75;;;17.90;82.70;;;;;;5030880;28;20032;-71
2023/06/01 06:46:47;;;;;;;12.63;5.50;;;17.90;82.50;;;;;;5031477;28;20022;-71
2023/06/01 06:49:13;;;;;;;11.25;5.68;;;17.90;82.30;;;;;;5031035;28;20075;-71
2023/06/01 06:51:39;;;;;;;12.65;5.20;;;17.90;82.20;;;;;;5032212;28;20021;-71
2023/06/01 06:54:08;;;;;;;11.18;5.10;;;18.00;82.00;;;;;;5031149;28;20030;-71
2023/06/01 06:56:33;;;;;;;9.73;4.72;;;18.00;81.70;;;;;;5032007;28;20029;-71
2023/06/01 06:59:02;;;;;;;10.88;4.93;;;18.00;81.10;;;;;;5030507;28;20400;-71
2023/06/01 07:01:32;;;;;;;9.40;4.68;;;18.00;81.20;;;;;;5030781;28;20030;-71
2023/06/01 07:04:08;;;;;;;7.78;4.78;;;18.10;81.30;;;;;;5031988;28;20022;-71
2023/06/01 07:06:34;;;;;;;9.30;5.10;;;18.10;81.10;;;;;;5031367;28;20017;-71
2023/06/01 07:09:05;;;;;;;10.32;4.72;;;18.20;81.20;;;;;;5030784;28;20088;-71
2023/06/01 07:11:34;;;;;;;11.95;4.70;;;18.20;81.00;;;;;;5031338;28;20101;-71
2023/06/01 07:14:03;;;;;;;8.88;4.65;;;18.30;81.00;;;;;;5047795;28;20024;-71
2023/06/01 07:16:29;;;;;;;9.05;5.03;;;18.30;80.70;;;;;;5046668;28;20087;-72
2023/06/01 07:19:01;;;;;;;12.18;4.30;;;18.40;80.70;;;;;;5047358;28;20429;-72
2023/06/01 07:21:26;;;;;;;11.15;5.13;;;18.40;80.80;;;;;;5059726;28;20079;-72
2023/06/01 07:23:52;;;;;;;10.00;4.70;;;18.50;80.50;;;;;;5047748;28;20029;-72
2023/06/01 07:26:25;;;;;;;9.20;4.70;;;18.50;80.50;;;;;;5044702;28;20035;-72
2023/06/01 07:28:53;;;;;;;12.38;4.72;;;18.40;81.00;;;;;;5041100;28;20132;-72
2023/06/01 07:31:20;;;;;;;7.40;4.70;;;18.40;80.70;;;;;;5050106;28;20472;-72
2023/06/01 07:33:52;;;;;;;8.75;5.03;;;18.30;80.70;;;;;;5053310;28;20017;-71
2023/06/01 07:36:23;;;;;;;9.02;4.47;;;18.40;80.90;;;;;;5055420;28;20028;-70
2023/06/01 07:38:51;;;;;;;7.97;4.30;;;18.40;80.80;;;;;;5056272;28;20033;-72
2023/06/01 07:41:17;;;;;;;9.13;4.95;;;18.50;80.90;;;;;;5048678;28;20037;-72
2023/06/01 07:43:49;;;;;;;12.57;4.63;;;18.50;80.50;;;;;;5055803;28;20021;-71
2023/06/01 07:46:14;;;;;;;11.90;4.88;;;18.60;79.70;;;;;;5055387;28;20078;-71
2023/06/01 07:48:40;;;;;;;9.70;4.75;;;18.60;78.60;;;;;;5053194;28;20418;-72
2023/06/01 07:51:09;;;;;;;10.20;4.63;;;18.70;78.80;;;;;;5053913;28;20067;-71
2023/06/01 07:53:35;;;;;;;8.68;4.68;;;18.60;78.90;;;;;;5053104;28;20063;-71
2023/06/01 07:56:11;;;;;;;12.10;4.10;;;18.70;78.70;;;;;;5054841;28;20029;-72
2023/06/01 07:58:49;;;;;;;14.10;5.00;;;18.60;78.60;;;;;;5051647;28;20064;-72
2023/06/01 08:01:18;;;;;;;11.00;4.85;;;18.70;79.00;;;;;;5057312;28;20428;-72
2023/06/01 08:03:44;;;;;;;13.63;4.15;;;18.80;79.10;;;;;;5052932;28;20017;-73
2023/06/01 08:06:13;;;;;;;9.38;4.97;;;18.90;79.10;;;;;;5057970;28;20033;-73
2023/06/01 08:08:39;;;;;;;12.45;5.30;;;19.00;78.80;;;;;;5055336;28;20364;-73
2023/06/01 08:11:05;;;;;;;8.23;4.65;;;19.10;78.80;;;;;;5055831;28;20051;-72
2023/06/01 08:13:30;;;;;;;11.40;4.97;;;19.10;79.40;;;;;;5055250;28;20028;-72
2023/06/01 08:15:56;;;;;;;10.93;5.20;;;19.20;79.70;;;;;;5053055;28;20025;-72
2023/06/01 08:18:23;;;;;;;8.43;5.00;;;19.30;79.70;;;;;;5047568;28;21011;-72
2023/06/01 08:20:57;;;;;;;9.38;4.60;;;19.40;79.50;;;;;;5051089;28;20013;-73
2023/06/01 08:23:23;;;;;;;13.82;5.53;;;19.50;79.30;;;;;;5051244;28;20075;-72
2023/06/01 08:25:49;;;;;;;8.65;5.00;;;19.50;79.20;;;;;;5050143;28;20025;-72
2023/06/01 08:28:15;;;;;;;8.60;4.88;;;19.60;79.00;;;;;;5051280;28;20079;-73
2023/06/01 08:30:41;;;;;;;9.88;5.35;;;19.70;78.60;;;;;;5045925;28;20508;-73
2023/06/01 08:33:12;;;;;;;11.07;4.57;;;19.70;79.10;;;;;;5048663;28;20384;-72
2023/06/01 08:35:37;;;;;;;9.38;4.70;;;19.80;79.30;;;;;;5029324;28;20471;-72
2023/06/01 08:38:03;;;;;;;8.30;4.80;;;19.90;78.60;;;;;;5047768;28;20104;-73
2023/06/01 08:40:31;;;;;;;10.43;4.75;;;20.00;78.20;;;;;;5048979;28;20522;-71
2023/06/01 08:43:18;;;;;;;9.32;4.95;;;20.10;78.40;;;;;;5048783;28;20038;-73
2023/06/01 08:45:45;;;;;;;8.82;4.15;;;20.20;78.50;;;;;;5051106;28;20032;-72
2023/06/01 08:48:15;;;;;;;8.73;4.68;;;20.20;78.60;;;;;;5047259;28;20379;-72
2023/06/01 08:50:53;;;;;;;9.98;4.45;;;20.20;78.70;;;;;;5055458;28;20028;-72
2023/06/01 08:53:22;;;;;;;8.35;4.35;;;20.30;78.60;;;;;;5064612;28;20025;-71
2023/06/01 08:56:06;;;;;;;11.05;4.97;;;20.30;78.40;;;;;;5048982;28;20025;-73
2023/06/01 08:58:36;;;;;;;9.60;4.63;;;20.40;78.40;;;;;;5042257;28;20108;-72
2023/06/01 09:01:01;;;;;;;9.27;4.90;;;20.60;78.20;;;;;;5049355;28;20229;-73
2023/06/01 09:03:27;;;;;;;11.18;5.18;;;20.60;77.50;;;;;;5050969;28;20041;-73
2023/06/01 09:05:53;;;;;;;10.23;4.95;;;20.60;77.20;;;;;;5049224;28;20021;-73
2023/06/01 09:08:18;;;;;;;16.65;4.45;;;20.80;76.90;;;;;;5051286;28;20032;-73
2023/06/01 09:10:47;;;;;;;8.52;4.18;;;20.90;76.80;;;;;;5049875;28;20036;-73
2023/06/01 09:13:29;;;;;;;10.82;4.05;;;20.90;76.00;;;;;;5049661;28;20029;-71
2023/06/01 09:15:58;;;;;;;10.55;4.82;;;21.00;76.20;;;;;;5051998;28;20479;-72
2023/06/01 09:18:24;;;;;;;9.95;4.63;;;21.10;75.70;;;;;;5051186;28;20435;-72
2023/06/01 09:20:52;;;;;;;9.10;4.43;;;21.10;75.30;;;;;;5048038;28;20025;-72
2023/06/01 09:23:28;;;;;;;12.18;5.40;;;21.20;75.20;;;;;;5048729;28;20021;-73
2023/06/01 09:26:13;;;;;;;12.13;4.85;;;21.30;75.20;;;;;;5049674;28;20053;-72
2023/06/01 09:29:00;;;;;;;10.45;4.95;;;21.40;75.20;;;;;;5049054;28;20025;-72
2023/06/01 09:31:46;;;;;;;8.13;4.90;;;21.40;75.40;;;;;;5048085;28;20556;-73
2023/06/01 09:34:15;;;;;;;9.93;4.93;;;21.50;75.20;;;;;;5049527;28;20364;-73
2023/06/01 09:36:41;;;;;;;11.60;4.95;;;21.50;75.60;;;;;;5047895;28;20017;-73
2023/06/01 09:39:19;;;;;;;12.05;5.40;;;21.60;75.70;;;;;;5047671;28;20056;-73
2023/06/01 09:41:50;;;;;;;9.65;4.57;;;21.60;74.90;;;;;;5042751;28;20017;-72
2023/06/01 09:44:28;;;;;;;9.10;4.88;;;21.60;74.60;;;;;;5045315;28;20029;-72
2023/06/01 09:46:58;;;;;;;11.18;4.80;;;21.80;75.00;;;;;;5047819;28;20085;-73
2023/06/01 09:49:44;;;;;;;8.60;4.00;;;21.80;74.50;;;;;;5048985;28;20029;-72
2023/06/01 09:52:12;;;;;;;9.18;4.75;;;21.90;74.80;;;;;;5045520;28;20029;-73
2023/06/01 09:54:54;;;;;;;8.45;4.72;;;22.00;74.90;;;;;;5051545;28;20021;-72
2023/06/01 09:57:23;;;;;;;8.80;4.70;;;22.00;74.20;;;;;;5046693;28;20040;-72
2023/06/01 09:59:48;;;;;;;9.82;5.00;;;22.10;75.00;;;;;;5045551;28;20021;-72
2023/06/01 10:02:22;;;;;;;8.65;4.55;;;22.20;75.30;;;;;;5048130;28;20467;-72
2023/06/01 10:04:53;;;;;;;12.75;4.63;;;22.30;73.50;;;;;;5047976;28;20017;-73
2023/06/01 10:07:30;;;;;;;10.02;4.75;;;22.30;73.60;;;;;;5050866;28;20017;-73
2023/06/01 10:10:02;;;;;;;11.38;4.57;;;22.40;73.60;;;;;;5047056;28;20055;-72
2023/06/01 10:12:31;;;;;;;14.50;5.53;;;22.50;72.40;;;;;;5047381;28;20044;-72
2023/06/01 10:15:03;;;;;;;7.70;4.13;;;22.50;71.50;;;;;;5052628;28;20503;-72
2023/06/01 10:17:29;;;;;;;9.77;4.72;;;22.60;70.90;;;;;;5047849;28;20026;-72
2023/06/01 10:19:56;;;;;;;9.63;4.68;;;22.60;70.30;;;;;;5053299;28;20021;-71
2023/06/01 10:22:22;;;;;;;6.63;4.40;;;22.70;68.80;;;;;;5051967;28;20018;-72
2023/06/01 10:24:48;;;;;;;10.90;5.20;;;22.70;69.20;;;;;;5054342;28;20027;-73
2023/06/01 10:27:23;;;;;;;9.70;5.05;;;22.80;68.60;;;;;;5051912;28;20022;-72
2023/06/01 10:29:51;;;;;;;6.60;4.20;;;22.90;67.60;;;;;;5043088;28;20028;-72
2023/06/01 10:33:02;;;;;;;11.50;5.63;;;23.00;67.00;;;;;;5051383;28;20036;-71
2023/06/01 10:35:33;;;;;;;9.38;5.00;;;23.00;65.00;;;;;;5045228;28;20403;-72
2023/06/01 10:38:12;;;;;;;7.47;4.53;;;23.00;64.90;;;;;;5049458;28;20069;-72
2023/06/01 10:40:39;;;;;;;10.13;4.93;;;23.10;65.80;;;;;;5051959;28;20025;-71
2023/06/01 10:43:06;;;;;;;7.00;4.32;;;23.10;66.20;;;;;;5050779;28;20056;-72
2023/06/01 10:45:41;;;;;;;8.45;5.10;;;23.20;66.20;;;;;;5050241;28;20025;-72
2023/06/01 10:48:10;;;;;;;9.77;4.47;;;23.20;66.10;;;;;;5048439;28;20341;-71
2023/06/01 10:50:36;;;;;;;8.43;4.43;;;23.30;66.40;;;;;;5048329;28;20049;-71
2023/06/01 10:53:26;;;;;;;10.68;4.68;;;23.20;66.30;;;;;;5048969;28;20025;-72
2023/06/01 10:56:23;;;;;;;9.65;4.95;;;23.30;66.20;;;;;;5036129;28;20136;-72
2023/06/01 10:59:09;;;;;;;10.80;4.38;;;23.30;66.70;;;;;;5040046;28;20152;-72
2023/06/01 11:01:44;;;;;;;8.20;4.50;;;23.40;67.10;;;;;;5048800;28;20561;-72
2023/06/01 11:04:10;;;;;;;8.13;4.47;;;23.50;67.10;;;;;;5052943;28;20043;-71
2023/06/01 11:06:42;;;;;;;9.63;4.10;;;23.50;66.50;;;;;;5098937;22;20054;-84
2023/06/01 11:09:10;;;;;;;7.00;4.25;;;23.60;66.30;;;;;;5105789;27;20023;-84
2023/06/01 11:11:48;;;;;;;6.53;4.00;;;23.60;66.20;;;;;;5110205;28;20498;-84
2023/06/01 11:14:16;;;;;;;11.02;5.28;;;23.70;66.70;;;;;;5118313;28;20031;-85
2023/06/01 11:16:42;;;;;;;9.73;5.10;;;23.70;66.50;;;;;;5123619;22;20023;-78
2023/06/01 11:19:09;;;;;;;7.90;4.65;;;23.80;66.40;;;;;;5062488;28;20063;-78
2023/06/01 11:21:40;;;;;;;11.05;5.03;;;23.80;66.40;;;;;;5068454;28;20016;-78
2023/06/01 11:24:11;;;;;;;6.70;4.65;;;23.80;66.40;;;;;;5050001;28;20115;-78
2023/06/01 11:26:42;;;;;;;9.40;4.95;;;23.80;66.20;;;;;;5083630;28;20047;-79
2023/06/01 11:29:08;;;;;;;6.82;4.22;;;23.80;66.40;;;;;;5088439;28;20024;-71
2023/06/01 11:31:36;;;;;;;9.85;4.60;;;23.80;66.60;;;;;;5067335;28;20509;-70
2023/06/01 11:34:02;;;;;;;14.95;4.72;;;23.80;66.40;;;;;;5069519;28;20027;-70
2023/06/01 11:36:36;;;;;;;12.23;4.97;;;23.90;66.50;;;;;;5087386;28;20039;-71
2023/06/01 11:39:08;;;;;;;9.20;4.53;;;23.90;66.30;;;;;;5088771;28;20020;-70
2023/06/01 11:41:35;;;;;;;9.10;4.85;;;23.90;66.30;;;;;;5086902;28;20502;-70
2023/06/01 11:44:00;;;;;;;9.05;4.70;;;24.00;66.00;;;;;;5089044;28;21216;-70
2023/06/01 11:46:28;;;;;;;12.27;5.05;;;24.00;66.30;;;;;;5085823;28;20024;-71
2023/06/01 11:49:05;;;;;;;8.00;4.90;;;24.10;66.50;;;;;;5083890;28;20016;-70
2023/06/01 11:51:33;;;;;;;10.75;4.95;;;24.10;65.30;;;;;;5065746;28;20029;-71
2023/06/01 11:54:03;;;;;;;12.27;4.90;;;24.10;65.60;;;;;;5082438;28;20028;-71
2023/06/01 11:56:34;;;;;;;6.70;4.75;;;24.10;65.70;;;;;;5083838;28;20032;-71
2023/06/01 11:59:01;;;;;;;6.32;4.20;;;24.20;65.50;;;;;;5087548;28;20059;-70
2023/06/01 12:01:29;;;;;;;6.60;4.40;;;24.40;65.10;;;;;;5087364;28;20199;-71
2023/06/01 12:03:58;;;;;;;9.25;5.25;;;24.50;64.40;;;;;;5087351;28;20025;-70
2023/06/01 12:06:29;;;;;;;8.70;4.35;;;24.30;64.80;;;;;;5087885;28;20059;-70
2023/06/01 12:08:55;;;;;;;9.68;5.15;;;24.30;64.50;;;;;;5058143;28;20024;-70
2023/06/01 12:11:26;;;;;;;9.95;4.90;;;24.40;64.80;;;;;;5080650;28;20031;-70
2023/06/01 12:13:54;;;;;;;8.18;4.28;;;24.40;64.50;;;;;;5083036;28;20031;-71
2023/06/01 12:16:25;;;;;;;7.03;4.32;;;24.50;63.90;;;;;;5080995;28;20127;-71
2023/06/01 12:18:51;;;;;;;8.88;4.03;;;24.50;63.50;;;;;;5086562;28;20028;-71
2023/06/01 12:21:17;;;;;;;9.98;4.18;;;24.50;63.60;;;;;;5067876;28;20038;-71
2023/06/01 12:23:51;;;;;;;8.45;4.35;;;24.60;63.10;;;;;;5091384;28;20119;-70
2023/06/01 12:26:16;;;;;;;;;;;24.50;63.30;;;;;;5083540;28;20021;-79
2023/06/01 12:28:54;;;;;;;9.82;4.40;;;24.50;63.60;;;;;;5073002;28;20420;-81
2023/06/01 12:31:20;;;;;;;7.35;4.15;;;24.40;63.40;;;;;;5088413;28;20044;-78
2023/06/01 12:33:50;;;;;;;7.03;4.55;;;24.50;63.40;;;;;;5100910;28;20084;-81
2023/06/01 12:36:34;;;;;;;8.45;4.20;;;24.50;63.20;;;;;;5076637;28;20253;-80
2023/06/01 12:39:04;;;;;;;7.97;4.38;;;24.50;62.90;;;;;;5094439;28;20084;-82
2023/06/01 12:41:31;;;;;;;9.32;4.70;;;24.50;63.00;;;;;;5091486;28;20111;-76
2023/06/01 12:43:57;;;;;;;8.15;4.15;;;24.60;62.60;;;;;;5070150;28;20089;-78
2023/06/01 12:46:28;;;;;;;5.65;3.53;;;24.60;62.20;;;;;;5072073;28;20016;-76
2023/06/01 12:49:10;;;;;;;7.22;3.90;;;24.60;62.40;;;;;;5090071;28;20035;-78
2023/06/01 12:51:36;;;;;;;9.07;4.63;;;24.70;62.20;;;;;;5097523;28;20431;-77
2023/06/01 12:54:02;;;;;;;7.45;4.25;;;24.70;61.60;;;;;;5080634;28;20023;-79
2023/06/01 12:56:28;;;;;;;6.60;4.15;;;24.70;61.90;;;;;;5077100;28;20048;-81
2023/06/01 12:58:54;;;;;;;10.98;4.25;;;24.80;61.60;;;;;;5069106;28;20220;-79